createdAt,value
2022-08-26T00:20:58.286Z,46.79
2022-08-26T00:49:50.239Z,46.78
2022-08-26T01:18:38.516Z,46.77
2022-08-26T01:47:31.095Z,46.78
2022-08-26T02:16:02.780Z,46.76
2022-08-26T02:44:44.859Z,46.76
2022-08-26T03:13:35.831Z,46.77
2022-08-26T03:42:22.122Z,46.74
2022-08-26T04:11:05.892Z,46.74
2022-08-26T04:39:51.485Z,45.89
2022-08-26T05:08:35.808Z,47.87
2022-08-26T05:37:18.026Z,48.31
2022-08-26T06:05:51.668Z,47.71
2022-08-26T06:34:31.385Z,48.25
2022-08-26T07:02:56.761Z,48.06
2022-08-26T07:54:40.434Z,48.07
2022-08-26T08:00:49.011Z,47.43
2022-08-26T08:04:31.785Z,48.36
2022-08-26T08:33:35.476Z,47.62
2022-08-26T09:02:17.495Z,47.66
2022-08-26T09:30:56.055Z,47.62
2022-08-26T09:49:36.670Z,48.2
2022-08-26T09:53:31.581Z,48.33
2022-08-26T09:58:15.927Z,48.77
2022-08-26T10:09:19.868Z,48.62
2022-08-26T10:13:24.053Z,48.75
2022-08-26T10:20:53.108Z,48.69
2022-08-26T10:25:06.543Z,48.67
2022-08-26T10:53:44.953Z,48.19
2022-08-26T11:02:29.303Z,49.44
2022-08-26T11:09:16.941Z,49.22
2022-08-26T11:14:34.099Z,48.84
2022-08-26T11:25:12.068Z,48.88
2022-08-26T11:29:53.585Z,49.07
2022-08-26T11:40:26.563Z,48.72
2022-08-26T11:51:50.981Z,49.76
2022-08-26T12:20:59.526Z,47.95
2022-08-26T12:49:37.962Z,47.75
2022-08-26T13:04:39.461Z,47.72
2022-08-26T13:33:15.125Z,47.47
2022-08-26T14:04:06.156Z,48.54
2022-08-26T14:10:22.861Z,48.64
2022-08-26T14:38:59.269Z,47.92
2022-08-26T15:07:32.558Z,48.01
2022-08-26T15:17:28.738Z,48.87
2022-08-26T15:45:57.295Z,48.07
2022-08-26T16:14:36.983Z,49.87
2022-08-26T16:43:16.430Z,51.05
2022-08-26T17:11:41.771Z,51.75
2022-08-26T17:40:13.652Z,53.49
2022-08-26T18:08:54.722Z,52.57
2022-08-26T18:37:19.601Z,53.15
2022-08-26T19:06:04.447Z,53.91
2022-08-26T19:34:52.844Z,54.04
2022-08-26T20:03:32.003Z,53.87
2022-08-26T20:32:06.393Z,53.47
2022-08-26T21:00:40.642Z,53.44
2022-08-26T21:29:19.353Z,53.11
2022-08-26T21:58:00.680Z,52.78
2022-08-26T22:26:53.956Z,52.55
2022-08-26T22:55:38.843Z,52.62
2022-08-26T23:24:19.298Z,52.81
2022-08-26T23:53:08.559Z,52.39
